createdAt,value
2023-03-27T00:01:16.371Z,96220.13
2023-03-27T00:03:43.444Z,96208.41
2023-03-27T00:06:17.472Z,96221.16
2023-03-27T00:08:48.967Z,96208.28
2023-03-27T00:11:17.010Z,96213.06
2023-03-27T00:13:49.600Z,96197.03
2023-03-27T00:16:17.773Z,96200.06
2023-03-27T00:18:45.166Z,96126.81
2023-03-27T00:21:11.895Z,96186.50
2023-03-27T00:23:38.479Z,96122.19
2023-03-27T00:26:05.520Z,96154.91
2023-03-27T00:28:32.408Z,96186.88
2023-03-27T00:30:59.605Z,96175.06
2023-03-27T00:33:27.092Z,96088.16
2023-03-27T00:35:54.338Z,96189.06
2023-03-27T00:38:21.457Z,96177.28
2023-03-27T00:40:50.807Z,96167.72
2023-03-27T00:43:24.773Z,96176.41
2023-03-27T00:45:55.662Z,96176.59
2023-03-27T00:48:24.840Z,96176.66
2023-03-27T00:50:53.157Z,96182.88
2023-03-27T00:53:26.635Z,96175.66
2023-03-27T00:55:56.529Z,96152.81
2023-03-27T00:58:28.872Z,96175.00
2023-03-27T01:00:57.114Z,96171.88
2023-03-27T01:03:28.070Z,96161.34
2023-03-27T01:05:56.794Z,96160.63
2023-03-27T01:08:24.597Z,96160.50
2023-03-27T01:10:59.188Z,96140.16
2023-03-27T01:13:36.862Z,96147.84
2023-03-27T01:16:17.828Z,96145.72
2023-03-27T01:19:04.646Z,96137.78
2023-03-27T01:21:43.431Z,96133.75
2023-03-27T01:24:14.517Z,96139.34
2023-03-27T01:27:18.537Z,96124.44
2023-03-27T01:29:53.477Z,96117.94
2023-03-27T01:32:32.170Z,96121.19
2023-03-27T01:35:26.049Z,96120.97
2023-03-27T01:38:01.581Z,96115.03
2023-03-27T01:40:55.948Z,96112.25
2023-03-27T01:44:05.065Z,96114.78
2023-03-27T01:46:35.789Z,96118.31
2023-03-27T01:49:33.639Z,96106.56
2023-03-27T01:52:04.890Z,96105.84
2023-03-27T01:54:38.418Z,96113.66
2023-03-27T01:57:09.102Z,96106.56
2023-03-27T01:59:42.672Z,96106.44
2023-03-27T02:02:19.158Z,96096.91
2023-03-27T02:05:01.493Z,96018.88
2023-03-27T02:07:45.607Z,96095.25
2023-03-27T02:10:19.695Z,96091.88
2023-03-27T02:12:54.776Z,96081.59
2023-03-27T02:15:31.838Z,95980.00
2023-03-27T02:18:06.601Z,96084.44
2023-03-27T02:20:34.795Z,96072.53
2023-03-27T02:23:02.085Z,96075.50
2023-03-27T02:25:32.436Z,96030.97
2023-03-27T02:28:14.327Z,96065.47
2023-03-27T02:31:32.113Z,96060.75
2023-03-27T02:34:13.228Z,96060.75
2023-03-27T02:36:50.858Z,96060.69
2023-03-27T02:39:30.733Z,96055.94
2023-03-27T02:42:20.906Z,96064.38
2023-03-27T02:44:58.215Z,96060.47
2023-03-27T02:47:30.846Z,96051.13
2023-03-27T02:50:06.276Z,96049.84
2023-03-27T02:52:39.646Z,95569.88
2023-03-27T02:55:12.960Z,96042.53
2023-03-27T02:57:39.604Z,96040.50
2023-03-27T03:00:20.404Z,96036.03
2023-03-27T03:02:48.583Z,96012.66
2023-03-27T03:05:22.230Z,95963.97
2023-03-27T03:07:49.717Z,95942.59
2023-03-27T03:10:17.034Z,96017.31
2023-03-27T03:12:43.603Z,96032.16
2023-03-27T03:15:10.752Z,95992.13
2023-03-27T03:17:37.493Z,95960.63
2023-03-27T03:20:05.738Z,96039.31
2023-03-27T03:22:32.402Z,96020.44
2023-03-27T03:24:59.026Z,95960.78
2023-03-27T03:27:25.682Z,96015.94
2023-03-27T03:29:53.219Z,96013.75
2023-03-27T03:32:19.792Z,96017.69
2023-03-27T03:34:49.150Z,96025.47
2023-03-27T03:37:15.854Z,95991.53
2023-03-27T03:39:42.424Z,95850.75
2023-03-27T03:42:09.334Z,95890.25
2023-03-27T03:44:49.135Z,95989.03
2023-03-27T03:47:16.858Z,95913.13
2023-03-27T03:49:43.448Z,95898.59
2023-03-27T03:52:10.076Z,95988.03
2023-03-27T03:54:38.764Z,95878.25
2023-03-27T03:57:05.611Z,95987.56
2023-03-27T03:59:32.445Z,95992.38
2023-03-27T04:01:59.152Z,95990.19
2023-03-27T04:04:25.851Z,95993.38
2023-03-27T04:06:53.170Z,95995.91
2023-03-27T04:09:19.842Z,95979.81
2023-03-27T04:11:47.022Z,96000.66
2023-03-27T04:14:13.773Z,95925.03
2023-03-27T04:16:40.364Z,95983.59
2023-03-27T04:19:07.224Z,96076.06
2023-03-27T04:21:33.818Z,95843.63
2023-03-27T04:24:02.765Z,95991.06
2023-03-27T04:26:29.950Z,95986.34
2023-03-27T04:28:56.643Z,95969.00
2023-03-27T04:31:23.332Z,95958.84
2023-03-27T04:33:52.031Z,95964.38
2023-03-27T04:36:19.172Z,95906.56
2023-03-27T04:38:48.058Z,95957.88
2023-03-27T04:41:14.793Z,95984.56
2023-03-27T04:43:41.986Z,95974.16
2023-03-27T04:46:08.860Z,95943.63
2023-03-27T04:48:38.896Z,95974.16
2023-03-27T04:51:06.825Z,95965.91
2023-03-27T04:53:36.186Z,95977.03
2023-03-27T04:56:04.253Z,95972.47
2023-03-27T04:58:30.855Z,95951.28
2023-03-27T05:00:58.115Z,95974.97
2023-03-27T05:03:26.037Z,95968.16
2023-03-27T05:05:53.836Z,95976.94
2023-03-27T05:08:20.507Z,95974.03
2023-03-27T05:10:47.115Z,95957.19
2023-03-27T05:13:13.811Z,95970.28
2023-03-27T05:15:40.529Z,95887.78
2023-03-27T05:18:09.107Z,95952.91
2023-03-27T05:20:36.265Z,95956.22
2023-03-27T05:23:03.138Z,95837.53
2023-03-27T05:25:31.031Z,95951.94
2023-03-27T05:27:57.991Z,95967.50
2023-03-27T05:30:26.287Z,95901.72
2023-03-27T05:32:53.582Z,95942.34
2023-03-27T05:35:23.972Z,95934.78
2023-03-27T05:37:53.227Z,95832.84
2023-03-27T05:40:22.528Z,95920.97
2023-03-27T05:42:51.236Z,95905.66
2023-03-27T05:45:18.639Z,95826.22
2023-03-27T05:47:56.709Z,95914.88
2023-03-27T05:50:27.068Z,95910.16
2023-03-27T05:52:58.075Z,95845.34
2023-03-27T05:55:27.419Z,95918.97
2023-03-27T05:57:54.930Z,95892.88
2023-03-27T06:00:25.889Z,95841.47
2023-03-27T06:02:57.431Z,95780.63
2023-03-27T06:05:26.758Z,95890.88
2023-03-27T06:07:53.550Z,95778.25
2023-03-27T06:10:23.494Z,95869.16
2023-03-27T06:12:58.748Z,95813.81
2023-03-27T06:15:25.808Z,95839.09
2023-03-27T06:17:52.544Z,95888.00
2023-03-27T06:20:21.357Z,95887.13
2023-03-27T06:22:49.893Z,95850.78
2023-03-27T06:25:17.698Z,95886.31
2023-03-27T06:27:46.502Z,95858.94
2023-03-27T06:30:17.409Z,95859.63
2023-03-27T06:32:45.275Z,95869.06
2023-03-27T06:35:14.609Z,95848.44
2023-03-27T06:37:42.575Z,95858.69
2023-03-27T06:40:10.405Z,95857.88
2023-03-27T06:42:38.217Z,95858.66
2023-03-27T06:45:05.767Z,95832.78
2023-03-27T06:47:36.327Z,95895.16
2023-03-27T06:50:07.519Z,95843.72
2023-03-27T06:52:34.082Z,95857.16
2023-03-27T06:55:00.695Z,95850.00
2023-03-27T06:57:27.295Z,95842.91
2023-03-27T06:59:53.851Z,95820.63
2023-03-27T07:02:20.636Z,95819.00
2023-03-27T07:04:54.402Z,95758.13
2023-03-27T07:07:30.892Z,95828.31
2023-03-27T07:09:57.522Z,95825.09
2023-03-27T07:12:24.080Z,95822.59
2023-03-27T07:14:51.523Z,95556.44
2023-03-27T07:17:18.748Z,95806.47
2023-03-27T07:19:46.449Z,95656.03
2023-03-27T07:22:13.078Z,95708.66
2023-03-27T07:24:40.800Z,95782.13
2023-03-27T07:27:07.958Z,95772.53
2023-03-27T07:29:36.201Z,95756.75
2023-03-27T07:32:07.202Z,95775.84
2023-03-27T07:34:35.895Z,95751.69
2023-03-27T07:37:02.518Z,95735.00
2023-03-27T07:39:29.132Z,95755.06
2023-03-27T07:41:55.852Z,95731.88
2023-03-27T07:44:22.550Z,95674.28
2023-03-27T07:46:52.219Z,95694.53
2023-03-27T07:49:19.245Z,95683.56
2023-03-27T07:52:07.121Z,95313.44
2023-03-27T07:54:33.700Z,95663.50
2023-03-27T07:57:00.424Z,95683.16
2023-03-27T07:59:28.250Z,95699.94
2023-03-27T08:01:55.563Z,95621.59
2023-03-27T08:04:22.385Z,95686.16
2023-03-27T08:06:51.494Z,95684.38
2023-03-27T08:09:18.092Z,95678.50
2023-03-27T08:11:44.685Z,95664.78
2023-03-27T08:14:11.269Z,95678.69
2023-03-27T08:16:38.041Z,95671.06
2023-03-27T08:19:06.257Z,95663.97
2023-03-27T08:21:34.279Z,95625.75
2023-03-27T08:24:02.709Z,95651.81
2023-03-27T08:26:29.368Z,95658.69
2023-03-27T08:28:56.470Z,95642.34
2023-03-27T08:31:24.158Z,95638.22
2023-03-27T08:33:50.967Z,95638.00
2023-03-27T08:36:20.043Z,95628.03
2023-03-27T08:38:46.947Z,95641.53
2023-03-27T08:41:38.994Z,95569.59
2023-03-27T08:44:10.663Z,95601.94
2023-03-27T08:46:42.974Z,95609.25
2023-03-27T08:49:20.979Z,95599.72
2023-03-27T08:51:53.952Z,95554.47
2023-03-27T08:54:23.353Z,95582.25
2023-03-27T08:56:51.027Z,95583.88
2023-03-27T08:59:21.389Z,95587.19
2023-03-27T09:02:10.837Z,95588.25
2023-03-27T09:04:37.770Z,95583.38
2023-03-27T09:07:13.667Z,95512.97
2023-03-27T09:10:02.178Z,95566.66
2023-03-27T09:12:31.642Z,95563.63
2023-03-27T09:15:21.923Z,95561.94
2023-03-27T09:18:06.463Z,95558.25
2023-03-27T09:20:40.814Z,95490.00
2023-03-27T09:23:31.698Z,95547.06
2023-03-27T09:26:02.135Z,95543.56
2023-03-27T09:28:38.192Z,95542.00
2023-03-27T09:31:25.053Z,95534.19
2023-03-27T09:33:52.424Z,95482.75
2023-03-27T09:36:19.246Z,95518.13
2023-03-27T09:38:51.492Z,95431.13
2023-03-27T09:41:22.829Z,95516.63
2023-03-27T09:44:20.992Z,95506.97
2023-03-27T09:46:52.354Z,95507.47
2023-03-27T09:49:20.966Z,95497.78
2023-03-27T09:51:52.513Z,95491.66
2023-03-27T09:54:21.707Z,95485.13
2023-03-27T09:57:11.584Z,95482.50
2023-03-27T09:59:51.359Z,95458.00
2023-03-27T10:02:30.742Z,95434.78
2023-03-27T10:04:59.425Z,95431.84
2023-03-27T10:07:26.934Z,95417.97
2023-03-27T10:13:35.142Z,95405.00
2023-03-27T10:16:23.788Z,95431.09
2023-03-27T10:18:55.167Z,95373.59
2023-03-27T10:21:39.005Z,95426.84
2023-03-27T10:24:19.606Z,95406.03
2023-03-27T10:26:48.826Z,95398.00
2023-03-27T10:29:26.672Z,95370.47
2023-03-27T10:31:55.783Z,95395.09
2023-03-27T10:34:34.631Z,95376.28
2023-03-27T10:37:03.261Z,95370.25
2023-03-27T10:39:34.418Z,95324.03
2023-03-27T10:42:09.354Z,95325.19
2023-03-27T10:44:38.251Z,95354.88
2023-03-27T10:47:15.098Z,95345.56
2023-03-27T10:49:48.024Z,95348.34
2023-03-27T10:52:28.627Z,95345.94
2023-03-27T10:55:01.298Z,95333.50
2023-03-27T10:57:37.331Z,95339.78
2023-03-27T11:00:22.606Z,95320.59
2023-03-27T11:02:52.346Z,95310.25
2023-03-27T11:05:28.059Z,95272.34
2023-03-27T11:08:20.426Z,95281.16
2023-03-27T11:10:47.623Z,95246.53
2023-03-27T11:13:23.509Z,95266.16
2023-03-27T11:16:09.152Z,95259.25
2023-03-27T11:18:41.133Z,95207.81
2023-03-27T11:21:13.794Z,95238.84
2023-03-27T11:23:49.180Z,95219.28
2023-03-27T11:26:18.200Z,95193.22
2023-03-27T11:28:52.987Z,95202.47
2023-03-27T11:31:28.033Z,95190.59
2023-03-27T11:34:05.905Z,95191.56
2023-03-27T11:36:49.392Z,95180.41
2023-03-27T11:39:22.690Z,95107.09
2023-03-27T11:41:56.268Z,95156.69
2023-03-27T11:44:24.036Z,95167.53
2023-03-27T11:46:57.177Z,94855.50
2023-03-27T11:49:59.253Z,95151.38
2023-03-27T11:52:31.644Z,95144.28
2023-03-27T11:55:06.865Z,95124.47
2023-03-27T11:57:59.252Z,95112.00
2023-03-27T12:00:39.305Z,95097.78
2023-03-27T12:03:31.838Z,95089.69
2023-03-27T12:06:02.207Z,95078.28
2023-03-27T12:08:41.278Z,95070.50
2023-03-27T12:11:12.403Z,94991.16
2023-03-27T12:14:08.945Z,95054.88
2023-03-27T12:16:40.912Z,95059.94
2023-03-27T12:19:31.192Z,95045.00
2023-03-27T12:22:24.311Z,95038.88
2023-03-27T12:25:16.992Z,95025.69
2023-03-27T12:27:59.808Z,94969.34
2023-03-27T12:30:32.413Z,95026.53
2023-03-27T12:33:29.659Z,95014.81
2023-03-27T12:36:01.197Z,95010.00
2023-03-27T12:38:32.837Z,95007.78
2023-03-27T12:41:05.563Z,94988.75
2023-03-27T12:43:41.293Z,94943.22
2023-03-27T12:46:23.314Z,94995.59
2023-03-27T12:49:05.835Z,94996.84
2023-03-27T12:52:04.882Z,94981.47
2023-03-27T12:54:36.308Z,94924.69
2023-03-27T12:57:26.040Z,94985.66
2023-03-27T13:00:01.378Z,94934.28
2023-03-27T13:03:09.716Z,94972.09
2023-03-27T13:06:01.968Z,94975.34
2023-03-27T13:08:47.291Z,94959.00
2023-03-27T13:11:34.019Z,94951.84
2023-03-27T13:14:06.482Z,94962.97
2023-03-27T13:16:55.932Z,94953.44
2023-03-27T13:19:38.746Z,94916.44
2023-03-27T13:22:14.410Z,94951.94
2023-03-27T13:24:56.651Z,94954.16
2023-03-27T13:27:47.127Z,94944.50
2023-03-27T13:30:44.375Z,94942.63
2023-03-27T13:33:13.927Z,94936.03
2023-03-27T13:36:02.186Z,94939.50
2023-03-27T13:38:51.858Z,94941.25
2023-03-27T13:41:48.548Z,94942.63
2023-03-27T13:44:28.627Z,94941.63
2023-03-27T13:47:32.040Z,94950.59
2023-03-27T13:50:03.617Z,94954.75
2023-03-27T13:52:55.229Z,94947.28
2023-03-27T13:55:31.247Z,94916.13
2023-03-27T13:58:10.156Z,94956.97
2023-03-27T14:00:55.672Z,94970.28
2023-03-27T14:03:58.679Z,94978.09
2023-03-27T14:06:37.813Z,94987.09
2023-03-27T14:09:31.224Z,94987.78
2023-03-27T14:12:06.560Z,94973.91
2023-03-27T14:14:56.014Z,94982.03
2023-03-27T14:17:41.629Z,94929.44
2023-03-27T14:20:27.435Z,94967.41
2023-03-27T14:23:03.575Z,94979.56
2023-03-27T14:25:35.280Z,94992.47
2023-03-27T14:28:02.659Z,95007.91
2023-03-27T14:30:44.376Z,95003.72
2023-03-27T14:33:11.307Z,95019.59
2023-03-27T14:35:42.402Z,95020.09
2023-03-27T14:38:36.634Z,95045.50
2023-03-27T14:41:17.253Z,95051.63
2023-03-27T14:43:52.226Z,95024.13
2023-03-27T14:46:23.426Z,95070.06
2023-03-27T14:48:54.729Z,95049.88
2023-03-27T14:51:33.890Z,95062.25
2023-03-27T14:54:07.734Z,95088.09
2023-03-27T14:56:47.433Z,95078.38
2023-03-27T14:59:19.225Z,95088.66
2023-03-27T15:01:48.804Z,94987.00
2023-03-27T15:04:15.788Z,95099.50
2023-03-27T15:06:42.499Z,95108.56
2023-03-27T15:09:19.247Z,95103.00
2023-03-27T15:11:56.372Z,95021.69
2023-03-27T15:14:28.118Z,95101.06
2023-03-27T15:17:11.601Z,95117.06
2023-03-27T15:19:45.467Z,95137.00
2023-03-27T15:22:27.441Z,95143.34
2023-03-27T15:25:02.896Z,95106.25
2023-03-27T15:27:35.783Z,95145.22
2023-03-27T15:30:02.312Z,95149.53
2023-03-27T15:32:50.209Z,95171.28
2023-03-27T15:35:25.381Z,95190.09
2023-03-27T15:37:52.573Z,95182.63
2023-03-27T15:40:36.757Z,95215.97
2023-03-27T15:43:19.757Z,95220.84
2023-03-27T15:46:03.319Z,95217.03
2023-03-27T15:48:40.754Z,95216.25
2023-03-27T15:51:29.468Z,95193.28
2023-03-27T15:53:56.597Z,95171.50
2023-03-27T15:56:41.163Z,95149.66
2023-03-27T15:59:10.920Z,95170.06
2023-03-27T16:01:38.930Z,95174.69
2023-03-27T16:04:10.684Z,95104.66
2023-03-27T16:06:41.050Z,95078.94
2023-03-27T16:09:27.186Z,95147.59
2023-03-27T16:11:55.158Z,95146.41
2023-03-27T16:14:28.608Z,95130.28
2023-03-27T16:17:19.593Z,95136.88
2023-03-27T16:20:12.676Z,95135.25
2023-03-27T16:22:40.419Z,95038.19
2023-03-27T16:25:09.856Z,95077.59
2023-03-27T16:27:49.706Z,95056.00
2023-03-27T16:30:38.791Z,95004.41
2023-03-27T16:33:16.760Z,94998.84
2023-03-27T16:35:44.294Z,94995.88
2023-03-27T16:38:11.530Z,94974.22
2023-03-27T16:40:38.140Z,95033.69
2023-03-27T16:43:04.944Z,95091.63
2023-03-27T16:45:32.018Z,95035.53
2023-03-27T16:47:59.135Z,95099.03
2023-03-27T16:50:29.072Z,95161.00
2023-03-27T16:52:55.810Z,95148.22
2023-03-27T16:55:22.493Z,95094.66
2023-03-27T16:57:49.105Z,95134.47
2023-03-27T17:00:16.959Z,95172.94
2023-03-27T17:02:44.638Z,95197.41
2023-03-27T17:05:11.823Z,95190.66
2023-03-27T17:07:38.664Z,95202.81
2023-03-27T17:10:05.969Z,95188.47
2023-03-27T17:12:32.645Z,95181.69
2023-03-27T17:14:59.337Z,95167.25
2023-03-27T17:17:27.524Z,95190.78
2023-03-27T17:19:54.335Z,95172.94
2023-03-27T17:22:21.503Z,95171.03
2023-03-27T17:24:56.630Z,95173.38
2023-03-27T17:27:25.874Z,95184.13
2023-03-27T17:29:52.478Z,95189.69
2023-03-27T17:32:19.100Z,95172.34
2023-03-27T17:34:45.811Z,95186.13
2023-03-27T17:37:12.681Z,95196.75
2023-03-27T17:39:39.539Z,95133.75
2023-03-27T17:42:06.742Z,95226.31
2023-03-27T17:44:33.477Z,95226.78
2023-03-27T17:47:00.843Z,95230.38
2023-03-27T17:49:29.680Z,95172.38
2023-03-27T17:51:56.462Z,95178.53
2023-03-27T17:54:23.190Z,95221.09
2023-03-27T17:56:49.803Z,95260.13
2023-03-27T17:59:16.468Z,95217.50
2023-03-27T18:01:45.537Z,95251.44
2023-03-27T18:04:12.239Z,95233.25
2023-03-27T18:06:38.926Z,95256.63
2023-03-27T18:09:07.448Z,95248.00
2023-03-27T18:11:34.109Z,95135.91
2023-03-27T18:14:01.340Z,95268.44
2023-03-27T18:16:28.115Z,95272.00
2023-03-27T18:18:55.697Z,95277.97
2023-03-27T18:21:22.327Z,95274.28
2023-03-27T18:23:49.036Z,95285.66
2023-03-27T18:26:16.753Z,95249.59
2023-03-27T18:28:43.590Z,95193.28
2023-03-27T18:31:12.170Z,95286.38
2023-03-27T18:33:39.192Z,95285.38
2023-03-27T18:36:10.941Z,95281.03
2023-03-27T18:38:40.267Z,95287.41
2023-03-27T18:41:07.355Z,95201.00
2023-03-27T18:43:34.275Z,95235.53
2023-03-27T18:46:04.355Z,95246.41
2023-03-27T18:48:31.250Z,95215.16
2023-03-27T18:50:59.966Z,95274.03
2023-03-27T18:53:27.679Z,95167.59
2023-03-27T18:55:54.945Z,95270.75
2023-03-27T18:58:26.801Z,95274.03
2023-03-27T19:00:55.888Z,95274.84
2023-03-27T19:03:24.788Z,95273.28
2023-03-27T19:05:52.867Z,95275.41
2023-03-27T19:08:21.346Z,95231.13
2023-03-27T19:10:48.535Z,95279.91
2023-03-27T19:13:16.148Z,95236.00
2023-03-27T19:15:43.182Z,95262.13
2023-03-27T19:18:10.147Z,95266.94
2023-03-27T19:20:37.014Z,95194.75
2023-03-27T19:23:04.094Z,95226.13
2023-03-27T19:25:34.145Z,95282.06
2023-03-27T19:28:05.003Z,95275.78
2023-03-27T19:30:32.803Z,95278.38
2023-03-27T19:32:59.804Z,95283.69
2023-03-27T19:35:26.933Z,95285.66
2023-03-27T19:37:54.664Z,95269.88
2023-03-27T19:40:22.422Z,95289.28
2023-03-27T19:42:49.294Z,95267.25
2023-03-27T19:45:16.440Z,95290.81
2023-03-27T19:47:43.635Z,95297.84
2023-03-27T19:50:10.485Z,95298.97
2023-03-27T19:52:37.813Z,95290.72
2023-03-27T19:55:05.479Z,95238.97
2023-03-27T19:57:32.347Z,95211.31
2023-03-27T19:59:58.916Z,95220.66
2023-03-27T20:02:27.295Z,95273.72
2023-03-27T20:04:54.122Z,95264.91
2023-03-27T20:07:20.888Z,95270.53
2023-03-27T20:09:47.584Z,95282.44
2023-03-27T20:12:14.155Z,95244.28
2023-03-27T20:14:40.813Z,95220.25
2023-03-27T20:17:12.240Z,95242.25
2023-03-27T20:19:49.020Z,95288.69
2023-03-27T20:22:20.724Z,95296.94
2023-03-27T20:24:48.388Z,95290.72
2023-03-27T20:27:19.847Z,95285.91
2023-03-27T20:29:47.260Z,95294.31
2023-03-27T20:32:14.468Z,95299.13
2023-03-27T20:34:41.055Z,95329.25
2023-03-27T20:37:12.057Z,95298.75
2023-03-27T20:39:47.254Z,95311.78
2023-03-27T20:42:16.097Z,95291.31
2023-03-27T20:44:45.090Z,95273.25
2023-03-27T20:47:12.707Z,95330.78
2023-03-27T20:49:42.845Z,95312.69
2023-03-27T20:52:11.755Z,95288.31
2023-03-27T20:54:38.607Z,95315.06
2023-03-27T20:57:06.165Z,95294.59
2023-03-27T20:59:32.776Z,95269.09
2023-03-27T21:02:00.104Z,95309.53
2023-03-27T21:04:28.391Z,95322.94
2023-03-27T21:06:56.221Z,95334.78
2023-03-27T21:09:24.389Z,95328.88
2023-03-27T21:11:51.357Z,95292.41
2023-03-27T21:14:17.912Z,95332.50
2023-03-27T21:16:44.566Z,95324.63
2023-03-27T21:19:12.000Z,95248.34
2023-03-27T21:21:39.432Z,95341.19
2023-03-27T21:24:06.464Z,95332.59
2023-03-27T21:26:33.711Z,95318.03
2023-03-27T21:29:00.372Z,95331.88
2023-03-27T21:31:27.085Z,95346.78
2023-03-27T21:33:53.760Z,95342.06
2023-03-27T21:36:20.790Z,95344.47
2023-03-27T21:38:47.568Z,95335.41
2023-03-27T21:41:16.234Z,95357.06
2023-03-27T21:43:43.016Z,95104.50
2023-03-27T21:46:09.676Z,95348.75
2023-03-27T21:48:36.322Z,95366.88
2023-03-27T21:51:04.892Z,95373.63
2023-03-27T21:53:31.546Z,95380.72
2023-03-27T21:55:58.811Z,95375.19
2023-03-27T21:58:26.008Z,95376.75
2023-03-27T22:00:55.439Z,95391.69
2023-03-27T22:03:22.017Z,95319.25
2023-03-27T22:05:54.525Z,95299.56
2023-03-27T22:08:37.310Z,95375.94
2023-03-27T22:11:04.099Z,95338.91
2023-03-27T22:13:30.735Z,95086.84
2023-03-27T22:15:57.954Z,95349.19
2023-03-27T22:18:24.962Z,95397.97
2023-03-27T22:20:51.646Z,95395.97
2023-03-27T22:23:18.237Z,95345.19
2023-03-27T22:25:54.740Z,95358.19
2023-03-27T22:28:21.484Z,95394.03
2023-03-27T22:30:48.291Z,95396.38
2023-03-27T22:33:14.937Z,95392.81
2023-03-27T22:35:47.902Z,95384.13
2023-03-27T22:38:15.354Z,95316.84
2023-03-27T22:40:42.557Z,95393.22
2023-03-27T22:43:09.183Z,95397.19
2023-03-27T22:45:36.321Z,95402.66
2023-03-27T22:48:03.063Z,95399.16
2023-03-27T22:50:29.721Z,95386.16
2023-03-27T22:52:56.328Z,95395.97
2023-03-27T22:55:22.905Z,95392.81
2023-03-27T22:57:49.498Z,95390.06
2023-03-27T23:00:16.845Z,95389.25
2023-03-27T23:02:43.472Z,95314.53
2023-03-27T23:05:10.354Z,95389.31
2023-03-27T23:07:37.253Z,95376.56
2023-03-27T23:10:04.047Z,95367.78
2023-03-27T23:12:30.681Z,95312.31
2023-03-27T23:14:57.236Z,95252.97
2023-03-27T23:17:23.931Z,95384.34
2023-03-27T23:19:50.882Z,95380.44
2023-03-27T23:22:17.449Z,95363.06
2023-03-27T23:24:44.112Z,95400.06
2023-03-27T23:27:10.868Z,95401.66
2023-03-27T23:29:37.465Z,95387.53
2023-03-27T23:32:04.191Z,95400.09
2023-03-27T23:34:30.889Z,95386.72
2023-03-27T23:36:57.694Z,95393.03
2023-03-27T23:39:24.337Z,95375.66
2023-03-27T23:41:50.922Z,95390.59
2023-03-27T23:44:17.641Z,95385.06
2023-03-27T23:46:44.222Z,95370.88
2023-03-27T23:49:12.849Z,95321.09
2023-03-27T23:51:39.497Z,95392.25
2023-03-27T23:54:06.142Z,95313.56
2023-03-27T23:56:32.718Z,95372.91
2023-03-27T23:58:59.347Z,95394.53
